Time;durP1;ratioP1;P1;durP2;ratioP2;P2;SDS_P1;SDS_P2;PMS_P1;PMS_P2;Temp;Humidity;BMP_temperature;BMP_pressure;BME280_temperature;BME280_humidity;BME280_pressure;Samples;Min_cycle;Max_cycle;Signal;HPM_P1;HPM_P2
2023/05/19 00:00:57;;;;;;;3.90;2.42;;;;;;;12.61;69.31;95121.47;4997957;28;20230;-71
2023/05/19 00:03:23;;;;;;;2.63;2.42;;;;;;;12.48;69.26;95118.47;5003777;28;20242;-71
2023/05/19 00:05:52;;;;;;;3.30;3.00;;;;;;;12.48;69.51;95115.84;5008724;28;20615;-69
2023/05/19 00:08:19;;;;;;;3.17;2.87;;;;;;;12.47;69.53;95114.19;5004656;28;20230;-69
2023/05/19 00:10:45;;;;;;;3.38;2.80;;;;;;;12.57;69.19;95113.06;5008350;28;20274;-69
2023/05/19 00:13:11;;;;;;;3.13;2.83;;;;;;;12.56;69.34;95118.50;5007505;28;20235;-69
2023/05/19 00:15:36;;;;;;;3.05;2.85;;;;;;;12.44;69.64;95114.53;5007761;28;20226;-69
2023/05/19 00:18:02;;;;;;;4.28;3.28;;;;;;;12.46;69.49;95112.56;5006507;28;20229;-69
2023/05/19 00:20:27;;;;;;;3.33;3.03;;;;;;;12.41;69.60;95099.84;5007105;28;20242;-68
2023/05/19 00:22:53;;;;;;;3.90;3.45;;;;;;;12.28;70.21;95099.47;5008361;28;20187;-69
2023/05/19 00:25:18;;;;;;;3.20;2.90;;;;;;;12.33;69.88;95099.81;5002798;28;20242;-69
2023/05/19 00:27:44;;;;;;;3.55;3.13;;;;;;;12.29;69.83;95103.75;5007087;28;20234;-69
2023/05/19 00:30:09;;;;;;;3.80;3.30;;;;;;;12.17;70.35;95095.31;5004050;28;20353;-69
2023/05/19 00:32:35;;;;;;;3.92;3.50;;;;;;;12.24;70.12;95099.00;5006804;28;20238;-69
2023/05/19 00:35:00;;;;;;;3.87;3.47;;;;;;;12.15;70.15;95097.28;5005619;28;20183;-69
2023/05/19 00:37:26;;;;;;;3.72;3.42;;;;;;;12.30;69.64;95103.59;5008125;28;20184;-69
2023/05/19 00:39:52;;;;;;;4.07;3.55;;;;;;;12.42;69.00;95108.56;5007880;28;20219;-69
2023/05/19 00:42:17;;;;;;;3.80;3.17;;;;;;;12.45;69.01;95100.34;5006451;28;20639;-69
2023/05/19 00:44:43;;;;;;;3.70;3.40;;;;;;;12.42;68.81;95087.47;5005650;28;20233;-69
2023/05/19 00:47:08;;;;;;;3.45;2.72;;;;;;;12.14;69.56;95085.09;5003425;28;20195;-69
2023/05/19 00:49:34;;;;;;;3.63;3.33;;;;;;;12.28;69.29;95087.13;5005822;28;20202;-69
2023/05/19 00:52:00;;;;;;;3.75;3.45;;;;;;;12.28;69.12;95086.31;5019809;28;20231;-71
2023/05/19 00:54:27;;;;;;;3.50;3.20;;;;;;;12.29;69.45;95090.56;5004682;28;20221;-72
2023/05/19 00:56:57;;;;;;;3.45;3.15;;;;;;;12.35;69.03;95095.22;5005478;28;20229;-72
2023/05/19 00:59:26;;;;;;;3.92;3.63;;;;;;;12.36;68.95;95083.69;5006059;28;20222;-74
2023/05/19 01:01:52;;;;;;;3.50;3.20;;;;;;;12.28;69.09;95086.31;5005944;28;20190;-72
2023/05/19 01:04:20;;;;;;;4.10;3.70;;;;;;;12.35;68.91;95088.13;5015121;28;20225;-73
2023/05/19 01:06:53;;;;;;;3.67;3.37;;;;;;;12.44;68.73;95093.44;4989348;28;20226;-73
2023/05/19 01:09:22;;;;;;;3.47;3.17;;;;;;;12.44;69.16;95085.50;5007462;28;20357;-73
2023/05/19 01:11:49;;;;;;;4.90;3.80;;;;;;;12.43;69.45;95086.47;5008065;28;20272;-73
2023/05/19 01:14:15;;;;;;;4.45;3.25;;;;;;;12.39;69.07;95085.19;5006147;28;20223;-73
2023/05/19 01:17:14;;;;;;;4.10;3.63;;;;;;;12.21;69.46;95094.00;5003344;28;20196;-70
2023/05/19 01:19:55;;;;;;;4.93;3.83;;;;;;;12.24;69.41;95093.72;5003784;28;20229;-71
2023/05/19 01:22:26;;;;;;;4.38;3.67;;;;;;;12.10;69.99;95094.31;5033855;28;20214;-71
2023/05/19 01:24:55;;;;;;;4.27;3.87;;;;;;;12.18;69.60;95094.34;4998728;28;20231;-71
2023/05/19 01:27:50;;;;;;;4.30;3.73;;;;;;;12.21;69.70;95094.00;4999582;28;20240;-71
2023/05/19 01:30:24;;;;;;;4.00;3.60;;;;;;;12.16;69.58;95101.56;4984027;28;20231;-69
2023/05/19 01:32:52;;;;;;;3.90;3.50;;;;;;;12.17;69.86;95090.06;4980457;28;20310;-69
2023/05/19 01:35:20;;;;;;;6.13;4.50;;;;;;;12.14;69.62;95093.84;4980767;28;20234;-69
2023/05/19 01:37:46;;;;;;;4.67;4.00;;;;;;;12.05;70.11;95089.50;4968905;28;20196;-69
2023/05/19 01:40:12;;;;;;;4.50;4.10;;;;;;;12.08;70.25;95093.63;4997972;28;20223;-71
2023/05/19 01:42:39;;;;;;;4.47;4.00;;;;;;;12.06;70.22;95092.97;5003107;28;20225;-72
2023/05/19 01:45:09;;;;;;;5.03;4.20;;;;;;;12.11;70.23;95096.78;5004574;28;20257;-72
2023/05/19 01:47:38;;;;;;;4.57;3.90;;;;;;;12.12;70.10;95098.44;5016530;28;20223;-69
2023/05/19 01:50:05;;;;;;;5.07;4.57;;;;;;;12.10;70.21;95099.56;5002905;28;20218;-70
2023/05/19 01:52:30;;;;;;;4.70;4.30;;;;;;;12.04;70.28;95095.75;5004629;28;20301;-72
2023/05/19 01:54:56;;;;;;;4.33;3.87;;;;;;;12.11;70.23;95102.06;5004426;28;20222;-70
2023/05/19 01:57:24;;;;;;;4.77;4.27;;;;;;;12.11;70.46;95103.88;5004867;28;20242;-73
2023/05/19 01:59:55;;;;;;;4.80;4.30;;;;;;;12.13;70.75;95099.25;5003621;28;20230;-72
2023/05/19 02:02:30;;;;;;;5.23;4.40;;;;;;;12.17;70.25;95097.16;5004623;28;20243;-72
2023/05/19 02:05:01;;;;;;;4.40;3.90;;;;;;;11.96;70.85;95094.91;5002496;28;20214;-70
2023/05/19 02:07:40;;;;;;;4.70;4.27;;;;;;;12.00;70.62;95106.78;5004917;28;20248;-72
2023/05/19 02:10:10;;;;;;;4.23;3.83;;;;;;;11.96;70.53;95105.44;5000798;28;20230;-70
2023/05/19 02:12:38;;;;;;;4.70;4.30;;;;;;;12.01;70.34;95111.91;5002014;28;20468;-70
2023/05/19 02:15:10;;;;;;;5.50;4.23;;;;;;;11.95;70.43;95102.00;5004408;28;20238;-70
2023/05/19 02:17:40;;;;;;;5.50;4.70;;;;;;;11.95;70.59;95103.78;4996478;28;20287;-70
2023/05/19 02:20:10;;;;;;;5.23;4.33;;;;;;;11.94;70.79;95105.59;5002182;28;20187;-68
2023/05/19 02:22:36;;;;;;;5.20;4.70;;;;;;;11.80;71.20;95111.44;4983334;28;20190;-68
2023/05/19 02:25:01;;;;;;;5.17;4.67;;;;;;;11.83;71.08;95106.66;5005510;28;20297;-68
2023/05/19 02:27:27;;;;;;;5.53;4.90;;;;;;;11.80;71.18;95100.91;5004568;28;20231;-69
2023/05/19 02:29:52;;;;;;;5.87;4.60;;;;;;;11.72;71.62;95106.94;5003071;28;20281;-68
2023/05/19 02:32:18;;;;;;;6.23;4.60;;;;;;;11.56;72.13;95102.41;4999028;28;20234;-67
2023/05/19 02:34:44;;;;;;;5.87;4.80;;;;;;;11.72;71.59;95109.59;5004985;28;20265;-67
2023/05/19 02:37:14;;;;;;;5.90;5.30;;;;;;;11.75;71.60;95116.34;4997563;28;20234;-69
2023/05/19 02:39:43;;;;;;;5.70;5.07;;;;;;;11.61;72.08;95110.69;4978470;28;20410;-69
2023/05/19 02:42:09;;;;;;;5.37;4.83;;;;;;;11.62;71.96;95106.22;5002770;28;20304;-70
2023/05/19 02:44:34;;;;;;;5.65;4.38;;;;;;;11.69;71.62;95115.16;4999222;28;20234;-70
2023/05/19 02:47:00;;;;;;;6.17;5.10;;;;;;;11.55;72.25;95119.22;4998765;28;20191;-70
2023/05/19 02:49:29;;;;;;;5.17;4.67;;;;;;;11.58;71.92;95115.44;5002827;28;20222;-70
2023/05/19 02:51:55;;;;;;;6.87;5.10;;;;;;;11.61;72.04;95118.56;5004150;28;20218;-70
2023/05/19 02:54:20;;;;;;;5.23;4.73;;;;;;;11.52;71.96;95113.41;5008314;28;20219;-70
2023/05/19 02:56:45;;;;;;;5.73;5.00;;;;;;;11.45;72.51;95116.66;5007811;28;20754;-69
2023/05/19 02:59:11;;;;;;;6.13;5.40;;;;;;;11.51;72.51;95115.22;5003573;28;20196;-70
2023/05/19 03:01:37;;;;;;;6.07;5.47;;;;;;;11.45;72.20;95110.56;5005237;28;20258;-70
2023/05/19 03:04:02;;;;;;;7.17;5.17;;;;;;;11.45;72.47;95115.84;5003983;28;20702;-70
2023/05/19 03:06:28;;;;;;;6.85;5.63;;;;;;;11.58;72.32;95125.97;5006043;28;21237;-70
2023/05/19 03:08:53;;;;;;;6.28;5.65;;;;;;;11.58;72.23;95125.97;5005301;28;20234;-70
2023/05/19 03:11:19;;;;;;;6.63;5.80;;;;;;;11.55;72.24;95121.03;4998888;28;20267;-70
2023/05/19 03:13:44;;;;;;;6.63;5.43;;;;;;;11.65;72.24;95130.47;5002115;28;20249;-70
2023/05/19 03:16:10;;;;;;;6.50;5.00;;;;;;;11.59;72.34;95132.88;5006391;28;20235;-68
2023/05/19 03:18:37;;;;;;;6.03;5.33;;;;;;;11.62;72.17;95128.13;5005027;28;20223;-69
2023/05/19 03:21:02;;;;;;;7.37;5.40;;;;;;;11.61;72.43;95131.75;5003511;28;20234;-69
2023/05/19 03:23:28;;;;;;;6.47;5.77;;;;;;;11.60;72.50;95130.09;5002254;28;20234;-71
2023/05/19 03:25:55;;;;;;;8.13;6.47;;;;;;;11.62;72.43;95133.38;5001847;28;20519;-70
2023/05/19 03:28:22;;;;;;;7.67;6.20;;;;;;;11.63;72.46;95137.69;5000992;28;20542;-71
2023/05/19 03:30:49;;;;;;;7.47;6.30;;;;;;;11.64;72.37;95128.78;5003352;28;20237;-68
2023/05/19 03:33:15;;;;;;;5.70;5.10;;;;;;;11.61;72.67;95131.75;5001632;28;20227;-71
2023/05/19 03:35:40;;;;;;;7.40;6.23;;;;;;;11.59;72.46;95128.44;5006230;28;20667;-68
2023/05/19 03:38:06;;;;;;;8.57;6.43;;;;;;;11.65;72.54;95119.94;5002039;28;20655;-70
2023/05/19 03:40:31;;;;;;;7.73;6.70;;;;;;;11.75;72.37;95134.78;4998555;28;20217;-71
2023/05/19 03:42:57;;;;;;;6.73;6.03;;;;;;;11.69;72.04;95126.53;5005343;28;20245;-68
2023/05/19 03:45:22;;;;;;;7.30;6.07;;;;;;;11.75;72.01;95130.34;4999881;28;20420;-71
2023/05/19 03:47:48;;;;;;;8.37;5.60;;;;;;;11.75;72.08;95135.59;5003436;28;20692;-71
2023/05/19 03:50:13;;;;;;;6.83;5.97;;;;;;;11.69;72.14;95136.25;5005250;28;20678;-69
2023/05/19 03:52:39;;;;;;;6.50;5.77;;;;;;;11.81;71.97;95137.59;5004560;28;20273;-71
2023/05/19 03:55:05;;;;;;;9.03;6.00;;;;;;;11.76;72.11;95142.56;5004576;28;20218;-71
2023/05/19 03:57:32;;;;;;;7.30;6.43;;;;;;;11.54;72.91;95133.34;5004458;28;20245;-71
2023/05/19 03:59:58;;;;;;;7.13;5.75;;;;;;;11.76;72.33;95142.56;4999345;28;20284;-72
2023/05/19 04:02:24;;;;;;;6.10;5.50;;;;;;;11.88;71.67;95140.50;5005282;28;20718;-72
2023/05/19 04:04:49;;;;;;;6.73;6.03;;;;;;;12.02;71.17;95142.53;5007049;28;20198;-70
2023/05/19 04:07:15;;;;;;;8.90;5.93;;;;;;;12.03;71.03;95138.06;5005707;28;20285;-70
2023/05/19 04:09:40;;;;;;;7.33;6.20;;;;;;;12.08;70.81;95138.44;5005642;28;20246;-71
2023/05/19 04:12:06;;;;;;;6.53;5.83;;;;;;;12.17;70.58;95136.69;5001511;28;20748;-70
2023/05/19 04:14:32;;;;;;;7.20;6.47;;;;;;;12.11;70.47;95138.16;5008077;28;20226;-70
2023/05/19 04:16:57;;;;;;;7.30;6.33;;;;;;;12.08;70.79;95143.72;5004198;28;20274;-69
2023/05/19 04:19:23;;;;;;;5.97;5.07;;;;;;;12.25;70.63;95144.63;5008219;28;20288;-69
2023/05/19 04:21:48;;;;;;;6.00;5.40;;;;;;;12.33;70.06;95147.28;5002720;28;20254;-70
2023/05/19 04:24:13;;;;;;;6.97;5.38;;;;;;;12.38;69.83;95150.28;5004990;28;20819;-70
2023/05/19 04:26:44;;;;;;;7.87;6.00;;;;;;;12.30;69.55;95145.78;5005309;28;20313;-69
2023/05/19 04:29:12;;;;;;;7.05;5.80;;;;;;;12.46;69.16;95154.75;4998229;28;20214;-69
2023/05/19 04:31:41;;;;;;;6.00;5.15;;;;;;;12.45;69.19;95153.91;5006832;28;20256;-69
2023/05/19 04:34:06;;;;;;;6.03;5.40;;;;;;;12.53;68.89;95161.03;5006667;28;20219;-71
2023/05/19 04:36:32;;;;;;;6.23;5.27;;;;;;;12.52;68.92;95160.19;5007377;28;20245;-72
2023/05/19 04:39:05;;;;;;;7.80;5.43;;;;;;;12.67;68.16;95162.22;5008096;28;20231;-71
2023/05/19 04:41:32;;;;;;;6.90;5.65;;;;;;;12.74;68.41;95169.31;5004760;28;20243;-70
2023/05/19 04:43:58;;;;;;;6.80;5.33;;;;;;;12.83;68.13;95159.63;5006136;28;20662;-71
2023/05/19 04:46:24;;;;;;;7.93;5.53;;;;;;;12.78;68.22;95161.94;4999498;28;20184;-69
2023/05/19 04:48:52;;;;;;;6.20;4.78;;;;;;;12.85;68.00;95164.75;5002261;28;20231;-70
2023/05/19 04:51:18;;;;;;;6.95;5.63;;;;;;;12.77;68.14;95155.00;5001937;28;20283;-69
2023/05/19 04:53:44;;;;;;;7.80;5.45;;;;;;;12.90;67.96;95160.63;5007751;28;20233;-68
2023/05/19 04:56:13;;;;;;;8.07;5.60;;;;;;;12.88;67.76;95167.88;5000613;28;20199;-67
2023/05/19 04:58:40;;;;;;;7.20;5.57;;;;;;;12.89;67.45;95156.34;5007912;28;20187;-67
2023/05/19 05:01:06;;;;;;;7.50;5.65;;;;;;;12.95;67.85;95160.13;5005437;28;20227;-67
2023/05/19 05:03:33;;;;;;;6.00;5.10;;;;;;;12.97;67.53;95174.00;5005442;28;20234;-67
2023/05/19 05:05:58;;;;;;;6.22;5.55;;;;;;;13.03;68.07;95173.34;5003172;28;20256;-70
2023/05/19 05:08:24;;;;;;;6.17;5.20;;;;;;;13.08;67.31;95172.88;5002265;28;20252;-67
2023/05/19 05:10:53;;;;;;;6.45;5.55;;;;;;;13.01;67.75;95162.13;5030757;28;20242;-68
2023/05/19 05:13:22;;;;;;;8.03;5.90;;;;;;;12.97;67.86;95160.81;5002153;28;20219;-68
2023/05/19 05:15:48;;;;;;;7.00;5.20;;;;;;;13.01;67.04;95167.41;4999489;28;20254;-69
2023/05/19 05:18:14;;;;;;;8.00;5.20;;;;;;;13.08;67.51;95173.69;4996556;28;20257;-69
2023/05/19 05:20:41;;;;;;;6.20;5.27;;;;;;;13.13;67.08;95160.00;5003786;28;20223;-67
2023/05/19 05:23:08;;;;;;;6.97;5.50;;;;;;;13.19;67.09;95168.09;5003876;28;20271;-69
2023/05/19 05:25:34;;;;;;;7.22;5.40;;;;;;;13.18;67.28;95158.53;4998553;28;20310;-68
2023/05/19 05:28:03;;;;;;;6.47;5.37;;;;;;;13.18;67.15;95163.81;5002438;28;20214;-68
2023/05/19 05:30:29;;;;;;;6.73;5.47;;;;;;;13.24;66.53;95167.59;5001890;28;20235;-68
2023/05/19 05:32:55;;;;;;;6.90;5.53;;;;;;;13.05;67.38;95167.91;5005354;28;20245;-67
2023/05/19 05:35:22;;;;;;;6.67;5.50;;;;;;;13.15;67.77;95177.34;5000691;28;20229;-68
2023/05/19 05:37:48;;;;;;;6.77;5.70;;;;;;;13.27;67.55;95169.13;5006033;28;20191;-69
2023/05/19 05:40:14;;;;;;;6.80;4.93;;;;;;;13.45;66.83;95172.44;5005695;28;20219;-68
2023/05/19 05:42:39;;;;;;;6.18;5.45;;;;;;;13.37;67.16;95167.16;5001794;28;20317;-70
2023/05/19 05:45:06;;;;;;;8.23;6.20;;;;;;;13.44;67.37;95168.97;5006834;28;20219;-66
2023/05/19 05:47:31;;;;;;;7.03;5.28;;;;;;;13.58;66.60;95172.75;5005156;28;20234;-67
2023/05/19 05:49:57;;;;;;;6.13;5.53;;;;;;;13.63;66.18;95175.72;5002780;28;20206;-66
2023/05/19 05:52:29;;;;;;;6.97;5.47;;;;;;;13.67;66.33;95171.75;5005201;28;20191;-67
2023/05/19 05:54:54;;;;;;;7.13;5.55;;;;;;;13.49;66.94;95172.91;5005242;28;20226;-67
2023/05/19 05:57:20;;;;;;;6.33;5.07;;;;;;;13.71;66.08;95184.63;5004015;28;20234;-67
2023/05/19 05:59:46;;;;;;;7.23;5.37;;;;;;;13.56;66.09;95187.94;5005860;28;20310;-66
2023/05/19 06:02:12;;;;;;;6.60;5.30;;;;;;;13.45;67.16;95183.00;5004439;28;20192;-67
2023/05/19 06:04:37;;;;;;;6.93;5.37;;;;;;;13.65;66.84;95189.56;5003652;28;20187;-66
2023/05/19 06:07:03;;;;;;;7.25;5.97;;;;;;;13.80;66.40;95197.66;5002409;28;20223;-67
2023/05/19 06:09:29;;;;;;;7.30;5.25;;;;;;;13.84;65.97;95190.22;5004261;28;20938;-66
2023/05/19 06:11:58;;;;;;;5.97;5.38;;;;;;;13.96;65.85;95199.47;5004065;28;20226;-66
2023/05/19 06:14:24;;;;;;;7.05;5.28;;;;;;;13.99;65.61;95195.66;5002993;28;20294;-67
2023/05/19 06:16:49;;;;;;;5.95;5.10;;;;;;;14.10;65.68;95200.59;4999965;28;20191;-67
2023/05/19 06:19:15;;;;;;;7.27;5.47;;;;;;;13.93;65.13;95193.69;4999566;28;20678;-67
2023/05/19 06:21:42;;;;;;;5.78;5.00;;;;;;;14.09;64.38;95194.47;5004016;28;20218;-67
2023/05/19 06:24:07;;;;;;;6.95;5.50;;;;;;;14.11;64.31;95197.78;5006607;28;20234;-67
2023/05/19 06:26:33;;;;;;;8.80;5.75;;;;;;;14.13;63.96;95197.59;5007145;28;20705;-65
2023/05/19 06:28:58;;;;;;;7.07;5.20;;;;;;;14.19;63.89;95194.25;4990660;28;20288;-65
2023/05/19 06:31:25;;;;;;;6.97;5.03;;;;;;;14.12;64.40;95196.78;5005829;28;20202;-63
2023/05/19 06:33:51;;;;;;;6.43;5.00;;;;;;;14.11;64.72;95192.50;5000976;28;20593;-63
2023/05/19 06:36:16;;;;;;;5.20;4.50;;;;;;;14.13;64.39;95192.31;4993358;28;20225;-63
2023/05/19 06:38:41;;;;;;;7.75;4.90;;;;;;;14.27;64.58;95198.72;5008361;28;20235;-63
2023/05/19 06:41:07;;;;;;;5.30;4.30;;;;;;;14.26;63.98;95194.44;5008242;28;20190;-61
2023/05/19 06:43:32;;;;;;;6.10;4.53;;;;;;;14.44;62.60;95181.81;5006529;28;20192;-69
2023/05/19 06:45:58;;;;;;;5.22;4.47;;;;;;;14.38;63.33;95189.56;5009953;28;20222;-70
2023/05/19 06:48:23;;;;;;;4.90;4.30;;;;;;;14.43;62.72;95181.97;5008913;28;20223;-68
2023/05/19 06:50:49;;;;;;;5.43;4.80;;;;;;;14.48;62.22;95195.50;5008140;28;20225;-66
2023/05/19 06:53:16;;;;;;;5.05;4.00;;;;;;;14.64;61.94;95197.28;5006809;28;20738;-64
2023/05/19 06:55:41;;;;;;;7.30;4.65;;;;;;;14.74;61.56;95203.19;5007249;28;20198;-65
2023/05/19 06:58:07;;;;;;;5.30;4.15;;;;;;;14.75;61.56;95192.44;5007209;28;20226;-66
2023/05/19 07:00:32;;;;;;;4.70;3.97;;;;;;;14.83;60.98;95201.34;5005746;28;20762;-66
2023/05/19 07:02:58;;;;;;;5.03;3.70;;;;;;;14.92;60.90;95209.06;5004263;28;20881;-65
2023/05/19 07:05:23;;;;;;;5.43;3.83;;;;;;;15.02;59.90;95200.06;4998744;28;20873;-66
2023/05/19 07:07:48;;;;;;;4.22;3.83;;;;;;;15.16;59.68;95207.28;4988215;28;20196;-66
2023/05/19 07:10:14;;;;;;;6.32;3.67;;;;;;;15.24;59.21;95209.88;4983886;28;20235;-67
2023/05/19 07:12:39;;;;;;;5.18;4.03;;;;;;;15.39;59.01;95205.44;4980937;28;20220;-67
2023/05/19 07:15:05;;;;;;;3.90;3.47;;;;;;;15.75;55.55;95202.22;4985591;28;20265;-67
2023/05/19 07:17:31;;;;;;;4.32;3.92;;;;;;;15.50;56.80;95206.84;4984581;28;20242;-67
2023/05/19 07:19:56;;;;;;;4.63;3.63;;;;;;;15.79;55.97;95211.47;5014694;28;21078;-65
2023/05/19 07:22:22;;;;;;;3.92;3.53;;;;;;;15.65;57.13;95207.75;4985447;28;20206;-67
2023/05/19 07:24:48;;;;;;;4.88;3.60;;;;;;;15.88;56.90;95217.53;4985255;28;20248;-67
2023/05/19 07:27:14;;;;;;;4.68;4.03;;;;;;;16.08;56.50;95209.88;4987742;28;20261;-67
2023/05/19 07:29:39;;;;;;;4.40;3.90;;;;;;;16.20;55.62;95215.56;4981896;28;20223;-67
2023/05/19 07:32:05;;;;;;;6.00;4.45;;;;;;;16.15;54.54;95208.16;4983570;28;20192;-67
2023/05/19 07:34:31;;;;;;;4.70;4.30;;;;;;;16.18;55.16;95213.09;4986155;28;20211;-66
2023/05/19 07:36:56;;;;;;;4.70;4.22;;;;;;;16.04;56.20;95216.56;5009422;28;20227;-72
2023/05/19 07:39:24;;;;;;;4.78;4.30;;;;;;;16.06;56.27;95209.22;4985364;28;20219;-65
2023/05/19 07:41:53;;;;;;;5.30;4.03;;;;;;;16.08;55.92;95208.03;4989382;28;20218;-69
2023/05/19 07:44:18;;;;;;;3.97;3.55;;;;;;;16.22;55.37;95214.38;5002522;28;20627;-68
2023/05/19 07:46:43;;;;;;;4.32;3.72;;;;;;;16.20;54.44;95210.25;5001457;28;20605;-68
2023/05/19 07:49:09;;;;;;;4.72;4.07;;;;;;;16.13;55.28;95201.38;5007939;28;20242;-65
2023/05/19 07:51:34;;;;;;;4.97;4.35;;;;;;;16.42;54.85;95205.88;5000692;28;20226;-66
2023/05/19 07:54:00;;;;;;;6.47;4.80;;;;;;;16.81;53.68;95208.25;5003898;28;20211;-67
2023/05/19 07:56:26;;;;;;;5.13;4.30;;;;;;;16.54;54.34;95202.59;5001021;28;20215;-65
2023/05/19 07:58:51;;;;;;;5.50;4.47;;;;;;;16.67;54.25;95207.22;5031067;28;20193;-66
2023/05/19 08:01:17;;;;;;;8.68;6.68;;;;;;;16.72;54.23;95210.16;5003996;28;20226;-66
2023/05/19 08:03:42;;;;;;;5.28;4.72;;;;;;;16.78;54.06;95207.81;5002576;28;20300;-66
2023/05/19 08:06:07;;;;;;;5.20;4.70;;;;;;;16.72;54.01;95207.50;5002221;28;20218;-65
2023/05/19 08:08:33;;;;;;;5.05;4.55;;;;;;;16.68;52.93;95205.38;4998923;28;20235;-66
2023/05/19 08:11:03;;;;;;;4.57;4.18;;;;;;;16.70;54.71;95206.84;4986166;28;20221;-67
2023/05/19 08:13:28;;;;;;;5.32;4.70;;;;;;;16.82;55.09;95211.75;5001284;28;20175;-66
2023/05/19 08:15:58;;;;;;;5.68;4.57;;;;;;;17.09;53.27;95210.22;5026863;28;20545;-67
2023/05/19 08:18:26;;;;;;;7.72;5.10;;;;;;;17.02;52.79;95204.00;5005760;28;20318;-66
2023/05/19 08:20:52;;;;;;;6.43;4.32;;;;;;;16.96;53.16;95210.88;5004883;28;20235;-67
2023/05/19 08:23:17;;;;;;;5.18;4.68;;;;;;;17.07;52.71;95214.91;5003495;28;20222;-68
2023/05/19 08:25:43;;;;;;;5.63;5.05;;;;;;;17.14;52.15;95218.47;5006617;28;20202;-69
2023/05/19 08:28:09;;;;;;;5.47;4.97;;;;;;;17.20;52.05;95207.88;5005600;28;20261;-67
2023/05/19 08:30:35;;;;;;;7.28;5.00;;;;;;;17.21;52.41;95208.72;5000684;28;20254;-67
2023/05/19 08:33:01;;;;;;;5.57;4.50;;;;;;;17.24;52.67;95197.72;5003325;28;20235;-67
2023/05/19 08:35:27;;;;;;;5.82;4.90;;;;;;;17.33;52.73;95201.09;4997165;28;20276;-72
2023/05/19 08:37:52;;;;;;;5.18;4.78;;;;;;;17.40;53.40;95196.63;5005686;28;20258;-69
2023/05/19 08:40:19;;;;;;;6.47;5.32;;;;;;;17.42;52.62;95200.75;5007253;28;20281;-67
2023/05/19 08:42:45;;;;;;;5.75;4.95;;;;;;;17.49;52.34;95205.34;5011362;28;20234;-70
2023/05/19 08:45:11;;;;;;;6.75;5.35;;;;;;;17.47;52.38;95200.19;5002768;28;20606;-68
2023/05/19 08:47:38;;;;;;;6.20;5.53;;;;;;;17.62;52.88;95208.13;5002169;28;20243;-66
2023/05/19 08:50:09;;;;;;;5.97;5.40;;;;;;;17.62;52.94;95200.13;4999495;28;20207;-65
2023/05/19 08:53:02;;;;;;;6.18;5.55;;;;;;;17.64;52.58;95208.72;4988133;28;20215;-66
2023/05/19 08:55:35;;;;;;;5.93;5.15;;;;;;;17.66;52.69;95209.38;5001260;28;20234;-66
2023/05/19 08:58:03;;;;;;;6.80;5.75;;;;;;;17.69;51.90;95208.97;5006089;28;20227;-68
2023/05/19 09:00:29;;;;;;;6.05;5.20;;;;;;;17.74;52.10;95203.09;5005468;28;20621;-65
2023/05/19 09:02:55;;;;;;;6.18;5.38;;;;;;;17.75;51.41;95204.72;5005592;28;20237;-70
2023/05/19 09:05:22;;;;;;;7.75;5.28;;;;;;;17.75;52.31;95194.09;4999030;28;20234;-67
2023/05/19 09:07:47;;;;;;;6.03;5.43;;;;;;;17.91;52.40;95199.19;4983547;28;20218;-70
2023/05/19 09:10:14;;;;;;;5.32;4.80;;;;;;;17.83;52.08;95199.34;4995804;28;20258;-70
2023/05/19 09:12:46;;;;;;;6.28;5.35;;;;;;;18.26;51.36;95185.94;4996747;28;20225;-70
2023/05/19 09:15:12;;;;;;;6.72;5.38;;;;;;;17.97;52.09;95190.44;4996971;28;20314;-70
2023/05/19 09:17:38;;;;;;;7.07;5.47;;;;;;;18.08;50.81;95189.06;4980452;28;20227;-71
2023/05/19 09:20:09;;;;;;;5.00;4.50;;;;;;;18.09;51.40;95185.38;4985857;28;20215;-65
2023/05/19 09:22:46;;;;;;;7.28;6.22;;;;;;;18.17;51.85;95182.56;4980010;28;20222;-70
2023/05/19 09:25:19;;;;;;;6.25;5.55;;;;;;;18.10;51.01;95181.72;4984506;28;20274;-71
2023/05/19 09:27:48;;;;;;;6.25;5.43;;;;;;;18.25;51.12;95169.09;4995479;28;20281;-67
2023/05/19 09:30:15;;;;;;;7.65;6.00;;;;;;;18.32;50.94;95174.50;4984359;28;20224;-66
2023/05/19 09:32:41;;;;;;;6.93;5.85;;;;;;;18.46;50.50;95176.19;4982559;28;20673;-72
2023/05/19 09:35:07;;;;;;;8.30;6.25;;;;;;;18.50;49.66;95177.47;4982822;28;20216;-70
2023/05/19 09:37:32;;;;;;;5.70;5.15;;;;;;;18.56;50.06;95175.84;4964369;28;20203;-71
2023/05/19 09:39:59;;;;;;;7.40;6.05;;;;;;;18.73;49.26;95177.16;5015826;28;20216;-71
2023/05/19 09:42:25;;;;;;;6.32;5.55;;;;;;;18.80;49.44;95179.06;4997727;28;20239;-72
2023/05/19 09:45:04;;;;;;;7.65;5.80;;;;;;;18.89;49.38;95181.34;4997868;28;20319;-69
2023/05/19 09:47:37;;;;;;;6.85;5.70;;;;;;;18.91;49.61;95173.16;4979586;28;20245;-71
2023/05/19 09:50:10;;;;;;;6.68;6.03;;;;;;;18.93;48.93;95169.28;4982177;28;20302;-71
2023/05/19 09:52:43;;;;;;;6.40;5.80;;;;;;;18.99;48.01;95169.50;4983511;28;20257;-71
2023/05/19 09:55:10;;;;;;;5.97;5.38;;;;;;;19.07;48.25;95164.81;4984211;28;20216;-72
2023/05/19 09:57:37;;;;;;;6.93;6.22;;;;;;;19.15;46.92;95163.81;4998009;28;20224;-71
2023/05/19 10:00:16;;;;;;;8.07;6.68;;;;;;;19.21;46.88;95162.19;4994228;28;20218;-71
2023/05/19 10:02:44;;;;;;;7.63;6.45;;;;;;;19.36;46.33;95160.16;5000551;28;20249;-70
2023/05/19 10:05:18;;;;;;;5.75;5.25;;;;;;;19.53;46.74;95158.75;5001514;28;20261;-70
2023/05/19 10:07:47;;;;;;;6.68;5.30;;;;;;;19.71;44.12;95160.84;5005293;28;20276;-68
2023/05/19 10:10:14;;;;;;;6.05;5.45;;;;;;;19.86;44.37;95159.81;5003691;28;20692;-70
2023/05/19 10:12:40;;;;;;;6.18;5.50;;;;;;;19.85;43.72;95159.00;5000654;28;20220;-71
2023/05/19 10:15:19;;;;;;;8.18;6.10;;;;;;;19.85;43.91;95158.19;5001228;28;20227;-68
2023/05/19 10:17:45;;;;;;;6.32;5.32;;;;;;;20.00;43.92;95158.78;5000722;28;20222;-68
2023/05/19 10:20:11;;;;;;;6.15;5.55;;;;;;;20.15;44.34;95148.69;5004428;28;20643;-68
2023/05/19 10:22:37;;;;;;;6.13;5.53;;;;;;;20.68;44.02;95147.75;5002651;28;20191;-69
2023/05/19 10:25:04;;;;;;;6.65;5.65;;;;;;;20.99;41.16;95147.03;5001909;28;20258;-70
2023/05/19 10:27:32;;;;;;;6.22;5.63;;;;;;;20.87;41.66;95148.72;5002576;28;20243;-70
2023/05/19 10:30:04;;;;;;;6.20;5.60;;;;;;;20.93;40.70;95147.88;5003163;28;20702;-70
2023/05/19 10:32:31;;;;;;;5.60;5.10;;;;;;;20.63;41.67;95127.03;5002652;28;20230;-66
2023/05/19 10:35:16;;;;;;;6.05;5.45;;;;;;;20.71;42.42;95136.66;4998272;28;20188;-74
2023/05/19 10:37:57;;;;;;;5.57;4.97;;;;;;;21.06;43.32;95144.31;4999433;28;20203;-73
2023/05/19 10:40:36;;;;;;;6.18;5.28;;;;;;;21.32;42.01;95138.00;4999990;28;20223;-69
2023/05/19 10:43:28;;;;;;;5.93;5.00;;;;;;;21.44;39.26;95135.47;5000848;28;20250;-68
2023/05/19 10:45:54;;;;;;;6.05;5.55;;;;;;;21.58;40.07;95132.50;4995944;28;20258;-67
2023/05/19 10:48:21;;;;;;;7.20;6.18;;;;;;;21.54;40.74;95131.31;5009338;28;20289;-67
2023/05/19 10:50:47;;;;;;;5.78;5.15;;;;;;;21.62;39.20;95137.41;5001659;28;20223;-70
2023/05/19 10:53:21;;;;;;;6.20;5.60;;;;;;;21.72;38.75;95137.75;5004307;28;20194;-65
2023/05/19 10:55:50;;;;;;;5.35;4.88;;;;;;;21.91;38.88;95128.72;5003454;28;20179;-66
2023/05/19 10:58:39;;;;;;;5.95;5.35;;;;;;;22.05;36.36;95118.69;5004600;28;20219;-69
2023/05/19 11:01:18;;;;;;;5.95;5.35;;;;;;;22.21;36.45;95126.22;5018894;28;20217;-70
2023/05/19 11:03:48;;;;;;;5.10;4.68;;;;;;;22.41;36.79;95123.31;5005416;28;20219;-67
2023/05/19 11:06:25;;;;;;;6.15;5.55;;;;;;;22.40;37.86;95115.50;5000529;28;20333;-68
2023/05/19 11:08:55;;;;;;;4.95;4.55;;;;;;;22.43;37.78;95113.22;5001962;28;20270;-67
2023/05/19 11:11:21;;;;;;;6.05;5.50;;;;;;;22.26;36.78;95116.69;5004539;28;20739;-66
2023/05/19 11:13:50;;;;;;;5.40;4.90;;;;;;;22.44;37.26;95116.69;5008771;28;20199;-67
2023/05/19 11:16:33;;;;;;;5.65;5.10;;;;;;;22.48;35.45;95111.69;5022454;28;20341;-67
2023/05/19 11:18:58;;;;;;;6.03;5.00;;;;;;;22.71;34.74;95116.41;5005470;28;20229;-67
2023/05/19 11:21:53;;;;;;;5.53;5.00;;;;;;;22.50;35.63;95118.47;5006897;28;20249;-71
2023/05/19 11:24:32;;;;;;;6.38;5.00;;;;;;;22.40;35.89;95104.78;5012167;28;20701;-66
2023/05/19 11:26:57;;;;;;;6.05;5.50;;;;;;;21.81;37.74;95106.97;5008302;28;20222;-67
2023/05/19 11:29:23;;;;;;;7.25;5.80;;;;;;;21.80;38.38;95116.06;5008469;28;20682;-69
2023/05/19 11:31:50;;;;;;;5.85;5.28;;;;;;;21.73;38.70;95116.13;5006895;28;20589;-67
2023/05/19 11:34:16;;;;;;;6.13;5.03;;;;;;;21.68;37.65;95109.75;5005161;28;20222;-68
2023/05/19 11:36:42;;;;;;;6.00;5.05;;;;;;;21.50;39.35;95113.22;5006867;28;20901;-69